sensor_id;sensor_type;location;lat;lon;timestamp;temperature;humidity
11035;DHT22;5571;48.110;-1.706;2023-02-28T00:00:18;3.90;99.90
11035;DHT22;5571;48.110;-1.706;2023-02-28T00:02:45;3.90;99.90
11035;DHT22;5571;48.110;-1.706;2023-02-28T00:05:12;3.90;99.90
11035;DHT22;5571;48.110;-1.706;2023-02-28T00:07:39;3.90;99.90
11035;DHT22;5571;48.110;-1.706;2023-02-28T00:10:07;3.80;99.90
11035;DHT22;5571;48.110;-1.706;2023-02-28T00:12:34;3.80;99.90
11035;DHT22;5571;48.110;-1.706;2023-02-28T00:14:59;3.80;99.90
11035;DHT22;5571;48.110;-1.706;2023-02-28T00:17:25;3.80;99.90
11035;DHT22;5571;48.110;-1.706;2023-02-28T00:19:51;3.70;99.90
11035;DHT22;5571;48.110;-1.706;2023-02-28T00:22:19;3.70;99.90
11035;DHT22;5571;48.110;-1.706;2023-02-28T00:24:46;3.70;99.90
11035;DHT22;5571;48.110;-1.706;2023-02-28T00:27:13;3.70;99.90
11035;DHT22;5571;48.110;-1.706;2023-02-28T00:29:38;3.70;99.90
11035;DHT22;5571;48.110;-1.706;2023-02-28T00:32:05;3.70;99.90
11035;DHT22;5571;48.110;-1.706;2023-02-28T00:34:31;3.70;99.90
11035;DHT22;5571;48.110;-1.706;2023-02-28T00:37:06;3.70;99.90
11035;DHT22;5571;48.110;-1.706;2023-02-28T00:39:34;3.70;99.90
11035;DHT22;5571;48.110;-1.706;2023-02-28T00:42:00;3.60;99.90
11035;DHT22;5571;48.110;-1.706;2023-02-28T00:44:27;3.60;99.90
11035;DHT22;5571;48.110;-1.706;2023-02-28T00:46:53;3.60;99.90
11035;DHT22;5571;48.110;-1.706;2023-02-28T00:49:20;3.60;99.90
11035;DHT22;5571;48.110;-1.706;2023-02-28T00:51:46;3.60;99.90
11035;DHT22;5571;48.110;-1.706;2023-02-28T00:54:11;3.60;99.90
11035;DHT22;5571;48.110;-1.706;2023-02-28T00:56:37;3.60;99.90
11035;DHT22;5571;48.110;-1.706;2023-02-28T00:59:03;3.60;99.90
11035;DHT22;5571;48.110;-1.706;2023-02-28T01:01:28;3.60;99.90
11035;DHT22;5571;48.110;-1.706;2023-02-28T01:03:54;3.50;99.90
11035;DHT22;5571;48.110;-1.706;2023-02-28T01:06:19;3.50;99.90
11035;DHT22;5571;48.110;-1.706;2023-02-28T01:08:45;3.50;99.90
11035;DHT22;5571;48.110;-1.706;2023-02-28T01:11:13;3.50;99.90
11035;DHT22;5571;48.110;-1.706;2023-02-28T01:13:40;3.50;99.90
11035;DHT22;5571;48.110;-1.706;2023-02-28T01:16:06;3.50;99.90
11035;DHT22;5571;48.110;-1.706;2023-02-28T01:18:32;3.50;99.90
11035;DHT22;5571;48.110;-1.706;2023-02-28T01:20:58;3.50;99.90
11035;DHT22;5571;48.110;-1.706;2023-02-28T01:23:23;3.50;99.90
11035;DHT22;5571;48.110;-1.706;2023-02-28T01:25:52;3.40;99.90
11035;DHT22;5571;48.110;-1.706;2023-02-28T01:28:18;3.50;99.90
11035;DHT22;5571;48.110;-1.706;2023-02-28T01:30:48;3.40;99.90
11035;DHT22;5571;48.110;-1.706;2023-02-28T01:33:15;3.40;99.90
11035;DHT22;5571;48.110;-1.706;2023-02-28T01:35:40;3.40;99.90
11035;DHT22;5571;48.110;-1.706;2023-02-28T01:38:06;3.40;99.90
11035;DHT22;5571;48.110;-1.706;2023-02-28T01:40:32;3.40;99.90
11035;DHT22;5571;48.110;-1.706;2023-02-28T01:42:58;3.40;99.90
11035;DHT22;5571;48.110;-1.706;2023-02-28T01:45:29;3.40;99.90
11035;DHT22;5571;48.110;-1.706;2023-02-28T01:48:01;3.40;99.90
11035;DHT22;5571;48.110;-1.706;2023-02-28T01:50:31;3.40;99.90
11035;DHT22;5571;48.110;-1.706;2023-02-28T01:53:01;3.30;99.90
11035;DHT22;5571;48.110;-1.706;2023-02-28T01:55:30;3.30;99.90
11035;DHT22;5571;48.110;-1.706;2023-02-28T01:58:00;3.30;99.90
11035;DHT22;5571;48.110;-1.706;2023-02-28T02:00:28;3.30;99.90
11035;DHT22;5571;48.110;-1.706;2023-02-28T02:02:58;3.30;99.90
11035;DHT22;5571;48.110;-1.706;2023-02-28T02:05:27;3.40;99.90
11035;DHT22;5571;48.110;-1.706;2023-02-28T02:08:12;3.30;99.90
11035;DHT22;5571;48.110;-1.706;2023-02-28T02:10:56;3.30;99.90
11035;DHT22;5571;48.110;-1.706;2023-02-28T02:16:23;3.30;99.90
11035;DHT22;5571;48.110;-1.706;2023-02-28T02:27:10;3.20;99.90
11035;DHT22;5571;48.110;-1.706;2023-02-28T02:35:43;3.20;99.90
11035;DHT22;5571;48.110;-1.706;2023-02-28T02:40:58;3.10;99.90
11035;DHT22;5571;48.110;-1.706;2023-02-28T02:44:23;3.10;99.90
11035;DHT22;5571;48.110;-1.706;2023-02-28T02:48:59;3.10;99.90
11035;DHT22;5571;48.110;-1.706;2023-02-28T02:51:27;3.10;99.90
11035;DHT22;5571;48.110;-1.706;2023-02-28T02:56:43;3.00;99.90
11035;DHT22;5571;48.110;-1.706;2023-02-28T02:59:12;3.00;99.90
11035;DHT22;5571;48.110;-1.706;2023-02-28T03:01:39;3.00;99.90
11035;DHT22;5571;48.110;-1.706;2023-02-28T03:04:18;3.00;99.90
11035;DHT22;5571;48.110;-1.706;2023-02-28T03:06:44;3.00;99.90
11035;DHT22;5571;48.110;-1.706;2023-02-28T03:09:10;2.90;99.90
11035;DHT22;5571;48.110;-1.706;2023-02-28T03:11:37;3.00;99.90
11035;DHT22;5571;48.110;-1.706;2023-02-28T03:23:15;2.80;99.90
11035;DHT22;5571;48.110;-1.706;2023-02-28T03:26:02;2.80;99.90
11035;DHT22;5571;48.110;-1.706;2023-02-28T03:31:14;2.80;99.90
11035;DHT22;5571;48.110;-1.706;2023-02-28T03:33:47;2.80;99.90
11035;DHT22;5571;48.110;-1.706;2023-02-28T03:36:23;2.80;99.90
11035;DHT22;5571;48.110;-1.706;2023-02-28T03:39:00;2.80;99.90
11035;DHT22;5571;48.110;-1.706;2023-02-28T03:42:05;2.70;99.90
11035;DHT22;5571;48.110;-1.706;2023-02-28T03:44:54;2.70;99.90
11035;DHT22;5571;48.110;-1.706;2023-02-28T03:47:36;2.70;99.90
11035;DHT22;5571;48.110;-1.706;2023-02-28T03:50:08;2.70;99.90
11035;DHT22;5571;48.110;-1.706;2023-02-28T03:52:40;2.70;99.90
11035;DHT22;5571;48.110;-1.706;2023-02-28T03:55:10;2.70;99.90
11035;DHT22;5571;48.110;-1.706;2023-02-28T03:58:01;2.70;99.90
11035;DHT22;5571;48.110;-1.706;2023-02-28T04:00:38;2.60;99.90
11035;DHT22;5571;48.110;-1.706;2023-02-28T04:03:05;2.60;99.90
11035;DHT22;5571;48.110;-1.706;2023-02-28T04:05:31;2.60;99.90
11035;DHT22;5571;48.110;-1.706;2023-02-28T04:08:07;2.60;99.90
11035;DHT22;5571;48.110;-1.706;2023-02-28T04:10:33;2.50;99.90
11035;DHT22;5571;48.110;-1.706;2023-02-28T04:12:59;2.60;99.90
11035;DHT22;5571;48.110;-1.706;2023-02-28T04:15:24;2.50;99.90
11035;DHT22;5571;48.110;-1.706;2023-02-28T04:17:52;2.50;99.90
11035;DHT22;5571;48.110;-1.706;2023-02-28T04:20:18;2.50;99.90
11035;DHT22;5571;48.110;-1.706;2023-02-28T04:22:44;2.60;99.90
11035;DHT22;5571;48.110;-1.706;2023-02-28T04:25:09;2.50;99.90
11035;DHT22;5571;48.110;-1.706;2023-02-28T04:27:35;2.40;99.90
11035;DHT22;5571;48.110;-1.706;2023-02-28T04:30:01;2.50;99.90
11035;DHT22;5571;48.110;-1.706;2023-02-28T04:32:26;2.40;99.90
11035;DHT22;5571;48.110;-1.706;2023-02-28T04:34:52;2.40;99.90
11035;DHT22;5571;48.110;-1.706;2023-02-28T04:37:18;2.40;99.90
11035;DHT22;5571;48.110;-1.706;2023-02-28T04:39:43;2.40;99.90
11035;DHT22;5571;48.110;-1.706;2023-02-28T04:42:10;2.30;99.90
11035;DHT22;5571;48.110;-1.706;2023-02-28T04:44:35;2.40;99.90
11035;DHT22;5571;48.110;-1.706;2023-02-28T04:47:01;2.40;99.90
11035;DHT22;5571;48.110;-1.706;2023-02-28T04:49:26;2.40;99.90
11035;DHT22;5571;48.110;-1.706;2023-02-28T04:51:52;2.40;99.90
11035;DHT22;5571;48.110;-1.706;2023-02-28T04:54:18;2.30;99.90
11035;DHT22;5571;48.110;-1.706;2023-02-28T04:56:44;2.30;99.90
11035;DHT22;5571;48.110;-1.706;2023-02-28T04:59:09;2.30;99.90
11035;DHT22;5571;48.110;-1.706;2023-02-28T05:01:35;2.30;99.90
11035;DHT22;5571;48.110;-1.706;2023-02-28T05:04:03;2.30;99.90
11035;DHT22;5571;48.110;-1.706;2023-02-28T05:06:31;2.30;99.90
11035;DHT22;5571;48.110;-1.706;2023-02-28T05:08:57;2.30;99.90
11035;DHT22;5571;48.110;-1.706;2023-02-28T05:11:28;2.20;99.90
11035;DHT22;5571;48.110;-1.706;2023-02-28T05:13:59;2.20;99.90
11035;DHT22;5571;48.110;-1.706;2023-02-28T05:16:24;2.20;99.90
11035;DHT22;5571;48.110;-1.706;2023-02-28T05:18:50;2.20;99.90
11035;DHT22;5571;48.110;-1.706;2023-02-28T05:21:29;2.20;99.90
11035;DHT22;5571;48.110;-1.706;2023-02-28T05:23:55;2.10;99.90
11035;DHT22;5571;48.110;-1.706;2023-02-28T05:26:22;2.10;99.90
11035;DHT22;5571;48.110;-1.706;2023-02-28T05:28:48;2.10;99.90
11035;DHT22;5571;48.110;-1.706;2023-02-28T05:31:13;2.00;99.90
11035;DHT22;5571;48.110;-1.706;2023-02-28T05:33:39;2.00;99.90
11035;DHT22;5571;48.110;-1.706;2023-02-28T05:36:05;2.10;99.90
11035;DHT22;5571;48.110;-1.706;2023-02-28T05:38:31;2.10;99.90
11035;DHT22;5571;48.110;-1.706;2023-02-28T05:40:57;2.00;99.90
11035;DHT22;5571;48.110;-1.706;2023-02-28T05:43:23;2.00;99.90
11035;DHT22;5571;48.110;-1.706;2023-02-28T05:45:48;2.00;99.90
11035;DHT22;5571;48.110;-1.706;2023-02-28T05:48:14;2.00;99.90
11035;DHT22;5571;48.110;-1.706;2023-02-28T05:50:40;2.00;99.90
11035;DHT22;5571;48.110;-1.706;2023-02-28T05:53:06;2.00;99.90
11035;DHT22;5571;48.110;-1.706;2023-02-28T05:55:31;2.00;99.90
11035;DHT22;5571;48.110;-1.706;2023-02-28T05:57:57;2.00;99.90
11035;DHT22;5571;48.110;-1.706;2023-02-28T06:00:23;1.90;99.90
11035;DHT22;5571;48.110;-1.706;2023-02-28T06:02:49;1.90;99.90
11035;DHT22;5571;48.110;-1.706;2023-02-28T06:05:17;1.90;99.90
11035;DHT22;5571;48.110;-1.706;2023-02-28T06:07:43;1.90;99.90
11035;DHT22;5571;48.110;-1.706;2023-02-28T06:10:11;2.00;99.90
11035;DHT22;5571;48.110;-1.706;2023-02-28T06:12:37;2.00;99.90
11035;DHT22;5571;48.110;-1.706;2023-02-28T06:15:03;2.00;99.90
11035;DHT22;5571;48.110;-1.706;2023-02-28T06:17:29;1.90;99.90
11035;DHT22;5571;48.110;-1.706;2023-02-28T06:19:55;1.90;99.90
11035;DHT22;5571;48.110;-1.706;2023-02-28T06:22:20;1.90;99.90
11035;DHT22;5571;48.110;-1.706;2023-02-28T06:24:46;1.90;99.90
11035;DHT22;5571;48.110;-1.706;2023-02-28T06:27:11;1.90;99.90
11035;DHT22;5571;48.110;-1.706;2023-02-28T06:29:37;1.90;99.90
11035;DHT22;5571;48.110;-1.706;2023-02-28T06:32:05;2.10;99.90
11035;DHT22;5571;48.110;-1.706;2023-02-28T06:34:31;2.20;99.90
11035;DHT22;5571;48.110;-1.706;2023-02-28T06:36:59;2.30;99.90
11035;DHT22;5571;48.110;-1.706;2023-02-28T06:39:31;2.40;99.90
11035;DHT22;5571;48.110;-1.706;2023-02-28T06:41:58;2.50;99.90
11035;DHT22;5571;48.110;-1.706;2023-02-28T06:44:24;2.50;99.90
11035;DHT22;5571;48.110;-1.706;2023-02-28T06:46:50;2.50;99.90
11035;DHT22;5571;48.110;-1.706;2023-02-28T06:49:16;2.50;99.90
11035;DHT22;5571;48.110;-1.706;2023-02-28T06:51:43;2.40;99.90
11035;DHT22;5571;48.110;-1.706;2023-02-28T06:54:11;2.20;99.90
11035;DHT22;5571;48.110;-1.706;2023-02-28T06:56:37;2.10;99.90
11035;DHT22;5571;48.110;-1.706;2023-02-28T06:59:02;2.10;99.90
11035;DHT22;5571;48.110;-1.706;2023-02-28T07:01:29;2.10;99.90
11035;DHT22;5571;48.110;-1.706;2023-02-28T07:03:54;2.00;99.90
11035;DHT22;5571;48.110;-1.706;2023-02-28T07:06:21;2.00;99.90
11035;DHT22;5571;48.110;-1.706;2023-02-28T07:08:52;2.00;99.90
11035;DHT22;5571;48.110;-1.706;2023-02-28T07:11:19;2.00;99.90
11035;DHT22;5571;48.110;-1.706;2023-02-28T07:13:44;2.00;99.90
11035;DHT22;5571;48.110;-1.706;2023-02-28T07:16:11;2.00;99.90
11035;DHT22;5571;48.110;-1.706;2023-02-28T07:18:38;2.00;99.90
11035;DHT22;5571;48.110;-1.706;2023-02-28T07:21:05;2.10;99.90
11035;DHT22;5571;48.110;-1.706;2023-02-28T07:23:32;2.00;99.90
11035;DHT22;5571;48.110;-1.706;2023-02-28T07:25:58;2.00;99.90
11035;DHT22;5571;48.110;-1.706;2023-02-28T07:28:24;2.00;99.90
11035;DHT22;5571;48.110;-1.706;2023-02-28T07:30:49;2.00;99.90
11035;DHT22;5571;48.110;-1.706;2023-02-28T07:33:15;2.00;99.90
11035;DHT22;5571;48.110;-1.706;2023-02-28T07:35:41;2.00;99.90
11035;DHT22;5571;48.110;-1.706;2023-02-28T07:38:07;2.00;99.90
11035;DHT22;5571;48.110;-1.706;2023-02-28T07:40:36;2.00;99.90
11035;DHT22;5571;48.110;-1.706;2023-02-28T07:43:02;2.10;99.90
11035;DHT22;5571;48.110;-1.706;2023-02-28T07:45:29;2.10;99.90
11035;DHT22;5571;48.110;-1.706;2023-02-28T07:47:55;2.10;99.90
11035;DHT22;5571;48.110;-1.706;2023-02-28T07:50:21;2.20;99.90
11035;DHT22;5571;48.110;-1.706;2023-02-28T07:52:47;2.10;99.90
11035;DHT22;5571;48.110;-1.706;2023-02-28T07:55:13;2.20;99.90
11035;DHT22;5571;48.110;-1.706;2023-02-28T07:57:40;2.20;99.90
11035;DHT22;5571;48.110;-1.706;2023-02-28T08:00:08;2.20;99.90
11035;DHT22;5571;48.110;-1.706;2023-02-28T08:02:38;2.20;99.90
11035;DHT22;5571;48.110;-1.706;2023-02-28T08:05:05;2.20;99.90
11035;DHT22;5571;48.110;-1.706;2023-02-28T08:07:31;2.30;99.90
11035;DHT22;5571;48.110;-1.706;2023-02-28T08:09:58;2.30;99.90
11035;DHT22;5571;48.110;-1.706;2023-02-28T08:12:24;2.30;99.90
11035;DHT22;5571;48.110;-1.706;2023-02-28T08:14:50;2.40;99.90
11035;DHT22;5571;48.110;-1.706;2023-02-28T08:17:15;2.50;99.90
11035;DHT22;5571;48.110;-1.706;2023-02-28T08:19:41;2.60;99.90
11035;DHT22;5571;48.110;-1.706;2023-02-28T08:22:07;2.60;99.90
11035;DHT22;5571;48.110;-1.706;2023-02-28T08:24:33;2.60;99.90
11035;DHT22;5571;48.110;-1.706;2023-02-28T08:26:58;2.70;99.90
11035;DHT22;5571;48.110;-1.706;2023-02-28T08:29:24;2.70;99.90
11035;DHT22;5571;48.110;-1.706;2023-02-28T08:31:50;2.80;99.90
11035;DHT22;5571;48.110;-1.706;2023-02-28T08:34:16;2.90;99.90
11035;DHT22;5571;48.110;-1.706;2023-02-28T08:36:42;2.90;99.90
11035;DHT22;5571;48.110;-1.706;2023-02-28T08:39:10;2.90;99.90
11035;DHT22;5571;48.110;-1.706;2023-02-28T08:41:36;2.90;99.90
11035;DHT22;5571;48.110;-1.706;2023-02-28T08:44:02;3.00;99.90
11035;DHT22;5571;48.110;-1.706;2023-02-28T08:46:28;3.10;99.90
11035;DHT22;5571;48.110;-1.706;2023-02-28T08:48:55;3.30;99.90
11035;DHT22;5571;48.110;-1.706;2023-02-28T08:51:21;3.30;99.90
11035;DHT22;5571;48.110;-1.706;2023-02-28T08:53:55;3.40;99.90
11035;DHT22;5571;48.110;-1.706;2023-02-28T08:56:21;3.40;99.90
11035;DHT22;5571;48.110;-1.706;2023-02-28T08:58:48;3.40;99.90
11035;DHT22;5571;48.110;-1.706;2023-02-28T09:01:16;3.40;99.90
11035;DHT22;5571;48.110;-1.706;2023-02-28T09:03:43;3.50;99.90
11035;DHT22;5571;48.110;-1.706;2023-02-28T09:06:10;3.50;99.90
11035;DHT22;5571;48.110;-1.706;2023-02-28T09:08:37;3.60;99.90
11035;DHT22;5571;48.110;-1.706;2023-02-28T09:11:02;3.70;99.90
11035;DHT22;5571;48.110;-1.706;2023-02-28T09:13:29;3.70;99.90
11035;DHT22;5571;48.110;-1.706;2023-02-28T09:16:01;3.70;99.90
11035;DHT22;5571;48.110;-1.706;2023-02-28T09:18:27;3.80;99.90
11035;DHT22;5571;48.110;-1.706;2023-02-28T09:20:54;3.90;99.90
11035;DHT22;5571;48.110;-1.706;2023-02-28T09:23:20;4.00;99.90
11035;DHT22;5571;48.110;-1.706;2023-02-28T09:25:51;4.10;99.90
11035;DHT22;5571;48.110;-1.706;2023-02-28T09:28:18;4.10;99.90
11035;DHT22;5571;48.110;-1.706;2023-02-28T09:30:48;4.20;99.90
11035;DHT22;5571;48.110;-1.706;2023-02-28T09:33:16;4.30;99.90
11035;DHT22;5571;48.110;-1.706;2023-02-28T09:35:42;4.40;99.90
11035;DHT22;5571;48.110;-1.706;2023-02-28T09:38:09;4.40;99.90
11035;DHT22;5571;48.110;-1.706;2023-02-28T09:40:52;4.50;99.90
11035;DHT22;5571;48.110;-1.706;2023-02-28T09:43:20;4.60;99.90
11035;DHT22;5571;48.110;-1.706;2023-02-28T09:45:51;4.60;99.90
11035;DHT22;5571;48.110;-1.706;2023-02-28T09:48:23;4.70;99.90
11035;DHT22;5571;48.110;-1.706;2023-02-28T09:51:00;4.90;99.90
11035;DHT22;5571;48.110;-1.706;2023-02-28T09:53:31;5.00;99.90
11035;DHT22;5571;48.110;-1.706;2023-02-28T09:56:28;5.20;99.90
11035;DHT22;5571;48.110;-1.706;2023-02-28T09:59:29;5.30;99.90
11035;DHT22;5571;48.110;-1.706;2023-02-28T10:01:59;5.40;99.90
11035;DHT22;5571;48.110;-1.706;2023-02-28T10:04:50;5.60;99.90
11035;DHT22;5571;48.110;-1.706;2023-02-28T10:07:56;5.70;99.90
11035;DHT22;5571;48.110;-1.706;2023-02-28T10:13:01;5.90;99.90
11035;DHT22;5571;48.110;-1.706;2023-02-28T10:15:31;6.00;99.90
11035;DHT22;5571;48.110;-1.706;2023-02-28T10:18:01;6.30;99.90
11035;DHT22;5571;48.110;-1.706;2023-02-28T10:20:32;6.50;99.90
11035;DHT22;5571;48.110;-1.706;2023-02-28T10:23:13;6.60;99.90
11035;DHT22;5571;48.110;-1.706;2023-02-28T10:25:40;6.80;99.90
11035;DHT22;5571;48.110;-1.706;2023-02-28T10:28:15;6.80;99.90
11035;DHT22;5571;48.110;-1.706;2023-02-28T10:30:49;6.80;99.80
11035;DHT22;5571;48.110;-1.706;2023-02-28T10:35:47;7.20;98.40
11035;DHT22;5571;48.110;-1.706;2023-02-28T10:38:19;7.30;98.10
11035;DHT22;5571;48.110;-1.706;2023-02-28T10:40:45;7.40;97.70
11035;DHT22;5571;48.110;-1.706;2023-02-28T10:46:13;7.70;96.90
11035;DHT22;5571;48.110;-1.706;2023-02-28T10:48:57;7.80;96.90
11035;DHT22;5571;48.110;-1.706;2023-02-28T10:51:37;7.80;96.80
11035;DHT22;5571;48.110;-1.706;2023-02-28T10:54:03;7.80;96.50
11035;DHT22;5571;48.110;-1.706;2023-02-28T10:56:30;7.90;96.90
11035;DHT22;5571;48.110;-1.706;2023-02-28T10:59:03;8.10;96.60
11035;DHT22;5571;48.110;-1.706;2023-02-28T11:01:46;8.30;96.70
11035;DHT22;5571;48.110;-1.706;2023-02-28T11:06:45;8.50;96.00
11035;DHT22;5571;48.110;-1.706;2023-02-28T11:09:38;8.60;95.40
11035;DHT22;5571;48.110;-1.706;2023-02-28T11:12:19;8.40;95.60
11035;DHT22;5571;48.110;-1.706;2023-02-28T11:14:52;8.50;95.30
11035;DHT22;5571;48.110;-1.706;2023-02-28T11:17:24;8.80;95.20
11035;DHT22;5571;48.110;-1.706;2023-02-28T11:20:02;8.80;94.10
11035;DHT22;5571;48.110;-1.706;2023-02-28T11:22:32;8.90;94.40
11035;DHT22;5571;48.110;-1.706;2023-02-28T11:25:03;9.20;94.40
11035;DHT22;5571;48.110;-1.706;2023-02-28T11:29:59;9.30;94.60
11035;DHT22;5571;48.110;-1.706;2023-02-28T11:32:30;9.10;93.90
11035;DHT22;5571;48.110;-1.706;2023-02-28T11:37:36;9.10;93.90
11035;DHT22;5571;48.110;-1.706;2023-02-28T11:40:05;9.40;93.40
11035;DHT22;5571;48.110;-1.706;2023-02-28T11:42:55;9.40;93.60
11035;DHT22;5571;48.110;-1.706;2023-02-28T11:53:55;9.80;92.60
11035;DHT22;5571;48.110;-1.706;2023-02-28T11:56:38;9.90;92.70
11035;DHT22;5571;48.110;-1.706;2023-02-28T12:01:54;10.20;91.90
11035;DHT22;5571;48.110;-1.706;2023-02-28T12:04:51;10.10;92.10
11035;DHT22;5571;48.110;-1.706;2023-02-28T12:07:27;10.20;91.60
11035;DHT22;5571;48.110;-1.706;2023-02-28T12:12:44;10.20;91.50
11035;DHT22;5571;48.110;-1.706;2023-02-28T12:21:18;10.00;91.70
11035;DHT22;5571;48.110;-1.706;2023-02-28T12:26:46;10.50;91.50
11035;DHT22;5571;48.110;-1.706;2023-02-28T12:29:26;10.50;91.70
11035;DHT22;5571;48.110;-1.706;2023-02-28T12:32:14;10.50;91.60
11035;DHT22;5571;48.110;-1.706;2023-02-28T12:34:47;10.80;92.00
11035;DHT22;5571;48.110;-1.706;2023-02-28T12:37:20;11.10;91.90
11035;DHT22;5571;48.110;-1.706;2023-02-28T12:39:51;11.10;91.80
11035;DHT22;5571;48.110;-1.706;2023-02-28T12:42:32;11.10;91.70
11035;DHT22;5571;48.110;-1.706;2023-02-28T12:45:16;11.10;91.70
11035;DHT22;5571;48.110;-1.706;2023-02-28T12:47:45;11.00;91.50
11035;DHT22;5571;48.110;-1.706;2023-02-28T12:50:12;10.80;92.10
11035;DHT22;5571;48.110;-1.706;2023-02-28T12:55:50;10.50;92.50
11035;DHT22;5571;48.110;-1.706;2023-02-28T12:58:33;10.30;92.50
11035;DHT22;5571;48.110;-1.706;2023-02-28T13:09:18;9.60;94.30
11035;DHT22;5571;48.110;-1.706;2023-02-28T13:11:54;9.50;94.20
11035;DHT22;5571;48.110;-1.706;2023-02-28T13:14:25;9.50;94.30
11035;DHT22;5571;48.110;-1.706;2023-02-28T13:17:12;9.50;94.40
11035;DHT22;5571;48.110;-1.706;2023-02-28T13:20:14;9.90;94.60
11035;DHT22;5571;48.110;-1.706;2023-02-28T13:22:44;10.20;93.90
11035;DHT22;5571;48.110;-1.706;2023-02-28T13:27:51;9.80;94.40
11035;DHT22;5571;48.110;-1.706;2023-02-28T13:36:08;10.30;94.40
11035;DHT22;5571;48.110;-1.706;2023-02-28T13:38:40;10.40;93.90
11035;DHT22;5571;48.110;-1.706;2023-02-28T13:46:31;9.50;95.40
11035;DHT22;5571;48.110;-1.706;2023-02-28T13:49:18;9.30;95.60
11035;DHT22;5571;48.110;-1.706;2023-02-28T13:51:46;9.00;96.00
11035;DHT22;5571;48.110;-1.706;2023-02-28T14:06:08;8.20;97.90
11035;DHT22;5571;48.110;-1.706;2023-02-28T14:08:35;8.00;98.30
11035;DHT22;5571;48.110;-1.706;2023-02-28T14:11:08;7.90;98.50
11035;DHT22;5571;48.110;-1.706;2023-02-28T14:13:45;7.80;99.00
11035;DHT22;5571;48.110;-1.706;2023-02-28T14:16:17;7.70;99.30
11035;DHT22;5571;48.110;-1.706;2023-02-28T14:18:51;7.60;99.50
11035;DHT22;5571;48.110;-1.706;2023-02-28T14:21:26;7.50;99.80
11035;DHT22;5571;48.110;-1.706;2023-02-28T14:32:22;7.40;99.90
11035;DHT22;5571;48.110;-1.706;2023-02-28T14:38:07;7.30;99.90
11035;DHT22;5571;48.110;-1.706;2023-02-28T14:40:39;7.20;99.90
11035;DHT22;5571;48.110;-1.706;2023-02-28T14:43:18;7.10;99.90
11035;DHT22;5571;48.110;-1.706;2023-02-28T14:45:50;7.10;99.90
11035;DHT22;5571;48.110;-1.706;2023-02-28T14:48:17;7.00;99.90
11035;DHT22;5571;48.110;-1.706;2023-02-28T14:50:53;6.90;99.90
11035;DHT22;5571;48.110;-1.706;2023-02-28T14:53:21;6.90;99.90
11035;DHT22;5571;48.110;-1.706;2023-02-28T14:55:48;6.90;99.90
11035;DHT22;5571;48.110;-1.706;2023-02-28T14:58:50;6.90;99.90
11035;DHT22;5571;48.110;-1.706;2023-02-28T15:01:20;6.80;99.90
11035;DHT22;5571;48.110;-1.706;2023-02-28T15:03:46;6.80;99.90
11035;DHT22;5571;48.110;-1.706;2023-02-28T15:06:17;6.80;99.90
11035;DHT22;5571;48.110;-1.706;2023-02-28T15:08:44;6.80;99.90
11035;DHT22;5571;48.110;-1.706;2023-02-28T15:11:14;6.70;99.90
11035;DHT22;5571;48.110;-1.706;2023-02-28T15:13:53;6.70;99.90
11035;DHT22;5571;48.110;-1.706;2023-02-28T15:16:28;6.80;99.90
11035;DHT22;5571;48.110;-1.706;2023-02-28T15:19:05;6.80;99.90
11035;DHT22;5571;48.110;-1.706;2023-02-28T15:21:39;6.80;99.90
11035;DHT22;5571;48.110;-1.706;2023-02-28T15:24:17;6.80;99.90
11035;DHT22;5571;48.110;-1.706;2023-02-28T15:26:53;6.70;99.90
11035;DHT22;5571;48.110;-1.706;2023-02-28T15:29:22;6.70;99.90
11035;DHT22;5571;48.110;-1.706;2023-02-28T15:31:57;6.60;99.90
11035;DHT22;5571;48.110;-1.706;2023-02-28T15:37:00;6.60;99.90
11035;DHT22;5571;48.110;-1.706;2023-02-28T15:39:27;6.50;99.90
11035;DHT22;5571;48.110;-1.706;2023-02-28T15:42:11;6.40;99.90
11035;DHT22;5571;48.110;-1.706;2023-02-28T15:44:37;6.40;99.90
11035;DHT22;5571;48.110;-1.706;2023-02-28T15:47:05;6.40;99.90
11035;DHT22;5571;48.110;-1.706;2023-02-28T15:49:52;6.40;99.90
11035;DHT22;5571;48.110;-1.706;2023-02-28T15:52:34;6.30;99.90
11035;DHT22;5571;48.110;-1.706;2023-02-28T15:55:24;6.30;99.90
11035;DHT22;5571;48.110;-1.706;2023-02-28T15:57:53;6.30;99.90
11035;DHT22;5571;48.110;-1.706;2023-02-28T16:00:22;6.20;99.90
11035;DHT22;5571;48.110;-1.706;2023-02-28T16:02:49;6.20;99.90
11035;DHT22;5571;48.110;-1.706;2023-02-28T16:07:42;6.10;99.90
11035;DHT22;5571;48.110;-1.706;2023-02-28T16:10:10;6.10;99.90
11035;DHT22;5571;48.110;-1.706;2023-02-28T16:12:38;6.10;99.90
11035;DHT22;5571;48.110;-1.706;2023-02-28T16:15:23;6.10;99.90
11035;DHT22;5571;48.110;-1.706;2023-02-28T16:17:50;6.10;99.90
11035;DHT22;5571;48.110;-1.706;2023-02-28T16:20:20;6.00;99.90
11035;DHT22;5571;48.110;-1.706;2023-02-28T16:22:46;6.10;99.90
11035;DHT22;5571;48.110;-1.706;2023-02-28T16:25:16;6.00;99.90
11035;DHT22;5571;48.110;-1.706;2023-02-28T16:27:45;6.00;99.90
11035;DHT22;5571;48.110;-1.706;2023-02-28T16:30:24;6.00;99.90
11035;DHT22;5571;48.110;-1.706;2023-02-28T16:32:51;6.00;99.90
11035;DHT22;5571;48.110;-1.706;2023-02-28T16:35:18;6.00;99.90
11035;DHT22;5571;48.110;-1.706;2023-02-28T16:37:44;6.00;99.90
11035;DHT22;5571;48.110;-1.706;2023-02-28T16:40:15;6.00;99.90
11035;DHT22;5571;48.110;-1.706;2023-02-28T16:42:41;6.00;99.90
11035;DHT22;5571;48.110;-1.706;2023-02-28T16:45:15;6.00;99.90
11035;DHT22;5571;48.110;-1.706;2023-02-28T16:47:42;5.90;99.90
11035;DHT22;5571;48.110;-1.706;2023-02-28T16:50:19;6.00;99.90
11035;DHT22;5571;48.110;-1.706;2023-02-28T16:52:45;6.00;99.90
11035;DHT22;5571;48.110;-1.706;2023-02-28T16:55:11;6.00;99.90
11035;DHT22;5571;48.110;-1.706;2023-02-28T16:57:37;6.00;99.90
11035;DHT22;5571;48.110;-1.706;2023-02-28T17:00:05;6.00;99.90
11035;DHT22;5571;48.110;-1.706;2023-02-28T17:02:31;6.00;99.90
11035;DHT22;5571;48.110;-1.706;2023-02-28T17:04:57;6.00;99.90
11035;DHT22;5571;48.110;-1.706;2023-02-28T17:07:22;6.00;99.90
11035;DHT22;5571;48.110;-1.706;2023-02-28T17:09:48;6.00;99.90
11035;DHT22;5571;48.110;-1.706;2023-02-28T17:12:13;6.00;99.90
11035;DHT22;5571;48.110;-1.706;2023-02-28T17:14:40;5.90;99.90
11035;DHT22;5571;48.110;-1.706;2023-02-28T17:17:06;6.00;99.90
11035;DHT22;5571;48.110;-1.706;2023-02-28T17:19:33;5.90;99.90
11035;DHT22;5571;48.110;-1.706;2023-02-28T17:21:59;6.00;99.90
11035;DHT22;5571;48.110;-1.706;2023-02-28T17:24:25;5.90;99.90
11035;DHT22;5571;48.110;-1.706;2023-02-28T17:26:51;5.90;99.90
11035;DHT22;5571;48.110;-1.706;2023-02-28T17:29:19;5.90;99.90
11035;DHT22;5571;48.110;-1.706;2023-02-28T17:31:45;5.90;99.90
11035;DHT22;5571;48.110;-1.706;2023-02-28T17:34:11;5.90;99.90
11035;DHT22;5571;48.110;-1.706;2023-02-28T17:36:38;5.90;99.90
11035;DHT22;5571;48.110;-1.706;2023-02-28T17:39:04;5.90;99.90
11035;DHT22;5571;48.110;-1.706;2023-02-28T17:41:34;5.90;99.90
11035;DHT22;5571;48.110;-1.706;2023-02-28T17:43:59;5.90;99.90
11035;DHT22;5571;48.110;-1.706;2023-02-28T17:46:25;5.90;99.90
11035;DHT22;5571;48.110;-1.706;2023-02-28T17:48:53;5.90;99.90
11035;DHT22;5571;48.110;-1.706;2023-02-28T17:51:22;5.90;99.90
11035;DHT22;5571;48.110;-1.706;2023-02-28T17:53:48;5.90;99.90
11035;DHT22;5571;48.110;-1.706;2023-02-28T17:56:24;5.90;99.90
11035;DHT22;5571;48.110;-1.706;2023-02-28T17:58:53;5.90;99.90
11035;DHT22;5571;48.110;-1.706;2023-02-28T18:01:20;5.90;99.90
11035;DHT22;5571;48.110;-1.706;2023-02-28T18:03:46;5.80;99.90
11035;DHT22;5571;48.110;-1.706;2023-02-28T18:06:18;5.90;99.90
11035;DHT22;5571;48.110;-1.706;2023-02-28T18:08:44;5.80;99.90
11035;DHT22;5571;48.110;-1.706;2023-02-28T18:11:10;5.90;99.90